createdAt,value
2023-11-18T00:01:59.343Z,20.20
2023-11-18T00:08:16.473Z,22.10
2023-11-18T00:11:43.139Z,25.30
2023-11-18T00:15:27.271Z,25.70
2023-11-18T00:19:06.499Z,27.70
2023-11-18T00:22:36.508Z,31.20
2023-11-18T00:25:55.920Z,32.10
2023-11-18T00:28:59.488Z,31.30
2023-11-18T00:32:33.347Z,31.30
2023-11-18T00:36:05.309Z,30.30
2023-11-18T00:39:40.386Z,28.00
2023-11-18T00:42:54.994Z,30.00
2023-11-18T00:46:14.714Z,27.90
2023-11-18T00:49:53.693Z,28.70
2023-11-18T00:53:11.234Z,30.00
2023-11-18T00:56:22.638Z,27.50
2023-11-18T00:59:15.117Z,30.60
2023-11-18T01:03:01.194Z,29.50
2023-11-18T01:05:50.621Z,28.90
2023-11-18T01:09:15.916Z,33.50
2023-11-18T01:12:34.848Z,29.50
2023-11-18T01:15:29.489Z,31.00
2023-11-18T01:18:38.176Z,31.60
2023-11-18T01:22:14.124Z,34.40
2023-11-18T01:25:46.691Z,33.50
2023-11-18T01:29:01.762Z,33.10
2023-11-18T01:32:51.177Z,34.00
2023-11-18T01:36:29.131Z,40.10
2023-11-18T01:39:44.421Z,40.40
2023-11-18T01:42:40.761Z,38.40
2023-11-18T01:46:15.561Z,43.40
2023-11-18T01:49:23.427Z,44.00
2023-11-18T01:52:21.656Z,46.40
2023-11-18T01:56:05.580Z,48.40
2023-11-18T01:59:17.842Z,51.10
2023-11-18T02:02:25.440Z,56.40
2023-11-18T02:05:33.881Z,57.60
2023-11-18T02:08:28.835Z,53.00
2023-11-18T02:11:54.518Z,59.70
2023-11-18T02:15:13.856Z,57.20
2023-11-18T02:18:18.244Z,55.10
2023-11-18T02:21:19.841Z,58.50
2023-11-18T02:24:55.094Z,60.10
2023-11-18T02:27:55.446Z,61.10
2023-11-18T02:31:22.482Z,64.40
2023-11-18T02:34:32.496Z,64.10
2023-11-18T02:37:33.834Z,65.10
2023-11-18T02:40:44.090Z,65.50
2023-11-18T02:44:19.002Z,57.70
2023-11-18T02:47:41.177Z,60.00
2023-11-18T02:51:11.864Z,65.80
2023-11-18T02:54:29.496Z,61.90
2023-11-18T02:57:50.546Z,60.80
2023-11-18T03:01:14.346Z,65.50
2023-11-18T03:04:20.394Z,65.30
2023-11-18T03:08:01.774Z,65.90
2023-11-18T03:11:20.811Z,64.60
2023-11-18T03:14:42.835Z,68.50
2023-11-18T03:18:16.397Z,66.90
2023-11-18T03:21:43.550Z,64.50
2023-11-18T03:25:09.055Z,57.70
2023-11-18T03:28:45.121Z,54.20
2023-11-18T03:32:11.070Z,60.50
2023-11-18T03:35:37.814Z,59.50
2023-11-18T03:42:24.502Z,53.80
2023-11-18T03:45:19.829Z,55.30
2023-11-18T03:49:01.501Z,57.40
2023-11-18T03:52:53.216Z,53.60
2023-11-18T03:56:15.858Z,51.60
2023-11-18T03:59:56.486Z,55.40
2023-11-18T04:03:30.061Z,47.40
2023-11-18T04:07:05.345Z,49.30
2023-11-18T04:10:38.952Z,46.50
2023-11-18T04:14:07.076Z,47.10
2023-11-18T04:17:41.747Z,45.30
2023-11-18T04:21:32.188Z,45.20
2023-11-18T04:24:54.181Z,48.40
2023-11-18T04:28:03.542Z,45.90
2023-11-18T04:31:24.690Z,39.30
2023-11-18T04:34:30.346Z,43.20
2023-11-18T04:37:57.148Z,37.10
2023-11-18T04:41:36.648Z,36.00
2023-11-18T04:44:36.125Z,39.50
2023-11-18T04:47:46.311Z,35.50
2023-11-18T04:51:03.765Z,37.30
2023-11-18T04:54:22.783Z,37.10
2023-11-18T04:57:22.451Z,38.20
2023-11-18T05:00:49.242Z,42.20
2023-11-18T05:03:55.301Z,41.00
2023-11-18T05:07:24.798Z,37.70
2023-11-18T05:10:31.315Z,38.10
2023-11-18T05:13:28.228Z,39.60
2023-11-18T05:16:48.717Z,36.00
2023-11-18T05:20:00.174Z,37.80
2023-11-18T05:23:13.064Z,34.70
2023-11-18T05:26:13.298Z,31.30
2023-11-18T05:29:48.888Z,29.80
2023-11-18T05:33:00.297Z,25.80
2023-11-18T05:36:11.786Z,27.20
2023-11-18T05:39:25.401Z,27.00
2023-11-18T05:43:10.345Z,26.60
2023-11-18T05:46:24.103Z,22.20
2023-11-18T05:49:42.919Z,23.30
2023-11-18T05:52:55.058Z,21.40
2023-11-18T05:56:08.633Z,25.50
2023-11-18T05:59:54.437Z,26.40
2023-11-18T06:03:07.394Z,23.40
2023-11-18T06:06:25.056Z,27.90
2023-11-18T06:09:32.209Z,25.60
2023-11-18T06:13:08.851Z,29.10
2023-11-18T06:16:43.268Z,25.10
2023-11-18T06:19:58.382Z,31.60
2023-11-18T06:23:24.247Z,27.80
2023-11-18T06:27:01.122Z,26.30
2023-11-18T06:30:28.112Z,29.00
2023-11-18T06:33:59.025Z,25.30
2023-11-18T06:37:43.752Z,26.90
2023-11-18T06:40:54.042Z,30.40
2023-11-18T06:44:25.327Z,30.30
2023-11-18T06:48:02.267Z,34.30
2023-11-18T06:51:28.894Z,30.10
2023-11-18T06:54:57.455Z,31.80
2023-11-18T06:58:35.039Z,31.20
2023-11-18T07:05:04.234Z,32.80
2023-11-18T07:08:33.444Z,34.10
2023-11-18T07:11:17.729Z,34.80
2023-11-18T07:15:01.551Z,33.50
2023-11-18T07:18:45.642Z,31.70
2023-11-18T07:22:03.756Z,35.10
2023-11-18T07:25:33.670Z,36.20
2023-11-18T07:29:20.644Z,33.40
2023-11-18T07:32:43.334Z,30.60
2023-11-18T07:36:00.938Z,34.30
2023-11-18T07:39:54.765Z,33.90
2023-11-18T07:43:35.067Z,33.20
2023-11-18T07:47:25.320Z,35.30
2023-11-18T07:51:04.529Z,31.90
2023-11-18T07:54:58.681Z,35.60
2023-11-18T08:02:15.348Z,32.00
2023-11-18T08:05:34.140Z,34.30
2023-11-18T08:09:09.874Z,33.40
2023-11-18T08:13:03.767Z,33.20
2023-11-18T08:17:00.479Z,31.30
2023-11-18T08:20:52.036Z,34.00
2023-11-18T08:27:42.334Z,31.60
2023-11-18T08:31:01.958Z,34.00
2023-11-18T08:34:12.693Z,32.70
2023-11-18T08:37:41.138Z,30.50
2023-11-18T08:41:20.183Z,29.90
2023-11-18T08:45:06.593Z,28.60
2023-11-18T08:48:21.805Z,28.10
2023-11-18T08:51:54.031Z,32.10
2023-11-18T08:55:09.498Z,30.00
2023-11-18T08:58:54.177Z,29.10
2023-11-18T09:02:49.706Z,29.30
2023-11-18T09:05:44.381Z,28.40
2023-11-18T09:09:12.355Z,31.00
2023-11-18T09:12:26.352Z,30.60
2023-11-18T09:16:02.951Z,29.00
2023-11-18T09:19:04.236Z,28.80
2023-11-18T09:22:21.312Z,29.40
2023-11-18T09:25:35.993Z,28.90
2023-11-18T09:28:35.092Z,33.90
2023-11-18T09:32:07.312Z,30.50
2023-11-18T09:35:10.030Z,30.00
2023-11-18T09:38:25.078Z,27.50
2023-11-18T09:41:57.715Z,32.60
2023-11-18T09:45:15.490Z,34.50
2023-11-18T09:48:18.465Z,29.10
2023-11-18T09:52:11.917Z,30.60
2023-11-18T09:55:39.100Z,29.80
2023-11-18T09:59:45.943Z,29.60
2023-11-18T10:03:09.423Z,28.00
2023-11-18T10:06:51.285Z,29.80
2023-11-18T10:10:38.707Z,30.40
2023-11-18T10:13:45.803Z,32.20
2023-11-18T10:17:41.479Z,31.80
2023-11-18T10:21:20.256Z,31.90
2023-11-18T10:24:27.557Z,31.20
2023-11-18T10:28:14.235Z,28.20
2023-11-18T10:31:31.213Z,29.60
2023-11-18T10:35:19.680Z,31.00
2023-11-18T10:38:33.046Z,31.60
2023-11-18T10:42:36.938Z,28.50
2023-11-18T10:46:00.428Z,31.00
2023-11-18T10:49:19.854Z,45.20
2023-11-18T10:52:28.803Z,32.80
2023-11-18T10:55:59.774Z,34.70
2023-11-18T10:59:15.291Z,31.00
2023-11-18T11:03:02.791Z,28.20
2023-11-18T11:07:03.290Z,28.50
2023-11-18T11:10:39.748Z,30.10
2023-11-18T11:13:56.535Z,28.70
2023-11-18T11:17:36.519Z,29.80
2023-11-18T11:21:51.521Z,32.50
2023-11-18T11:25:46.645Z,28.00
2023-11-18T11:29:12.683Z,26.50
2023-11-18T11:32:54.478Z,26.50
2023-11-18T11:36:21.326Z,23.60
2023-11-18T11:39:48.252Z,26.60
2023-11-18T11:46:57.181Z,28.70
2023-11-18T11:50:33.090Z,30.10
2023-11-18T11:54:15.241Z,26.10
2023-11-18T11:57:24.765Z,26.40
2023-11-18T12:00:46.407Z,27.40
2023-11-18T12:03:52.684Z,24.90
2023-11-18T12:07:12.513Z,25.70
2023-11-18T12:13:18.150Z,27.20
2023-11-18T12:16:31.070Z,23.10
2023-11-18T12:20:06.468Z,24.40
2023-11-18T12:23:18.791Z,26.70
2023-11-18T12:27:07.930Z,24.00
2023-11-18T12:30:37.055Z,25.80
2023-11-18T12:34:01.078Z,23.10
2023-11-18T12:37:43.246Z,26.60
2023-11-18T12:41:12.796Z,24.10
2023-11-18T12:44:43.856Z,26.10
2023-11-18T12:48:11.709Z,27.10
2023-11-18T12:51:20.369Z,26.00
2023-11-18T12:54:04.059Z,26.10
2023-11-18T12:57:16.142Z,24.40
2023-11-18T13:00:38.011Z,23.70
2023-11-18T13:03:53.993Z,24.80
2023-11-18T13:06:52.331Z,25.10
2023-11-18T13:10:02.636Z,26.40
2023-11-18T13:13:16.398Z,26.80
2023-11-18T13:16:32.817Z,24.80
2023-11-18T13:19:57.550Z,26.00
2023-11-18T13:23:17.983Z,27.40
2023-11-18T13:26:37.754Z,27.60
2023-11-18T13:29:48.514Z,30.20
2023-11-18T13:32:51.064Z,31.70
2023-11-18T13:36:18.424Z,36.70
2023-11-18T13:39:49.144Z,35.90
2023-11-18T13:43:15.825Z,31.80
2023-11-18T13:46:49.555Z,33.70
2023-11-18T13:50:07.172Z,35.40
2023-11-18T13:53:13.202Z,30.10
2023-11-18T13:56:39.304Z,33.40
2023-11-18T13:59:22.530Z,28.50
2023-11-18T14:02:43.564Z,32.00
2023-11-18T14:06:20.065Z,32.30
2023-11-18T14:09:47.160Z,29.20
2023-11-18T14:12:43.157Z,34.90
2023-11-18T14:16:00.903Z,28.20
2023-11-18T14:19:44.547Z,32.90
2023-11-18T14:23:16.761Z,32.30
2023-11-18T14:26:49.592Z,33.20
2023-11-18T14:30:26.030Z,31.70
2023-11-18T14:34:20.009Z,33.00
2023-11-18T14:37:46.487Z,38.30
2023-11-18T14:40:55.560Z,32.30
2023-11-18T14:44:02.035Z,31.80
2023-11-18T14:47:13.059Z,28.60
2023-11-18T14:50:54.744Z,33.40
2023-11-18T14:54:58.690Z,32.80
2023-11-18T14:58:25.070Z,29.80
2023-11-18T15:02:00.549Z,34.50
2023-11-18T15:05:24.138Z,33.30
2023-11-18T15:09:04.200Z,31.20
2023-11-18T15:12:33.338Z,32.30
2023-11-18T15:15:34.171Z,32.60
2023-11-18T15:19:04.238Z,31.70
2023-11-18T15:22:18.433Z,33.10
2023-11-18T15:26:06.009Z,40.00
2023-11-18T15:29:38.633Z,40.90
2023-11-18T15:32:57.502Z,40.10
2023-11-18T15:36:13.918Z,35.20
2023-11-18T15:40:12.070Z,36.30
2023-11-18T15:44:15.517Z,39.10
2023-11-18T15:47:50.020Z,33.60
2023-11-18T15:51:36.387Z,36.50
2023-11-18T15:55:00.085Z,40.20
2023-11-18T15:58:23.829Z,35.40
2023-11-18T16:02:10.017Z,41.60
2023-11-18T16:06:08.100Z,38.10
2023-11-18T16:09:41.322Z,36.60
2023-11-18T16:13:26.586Z,41.40
2023-11-18T16:17:23.136Z,40.00
2023-11-18T16:21:09.610Z,41.40
2023-11-18T16:24:30.529Z,40.60
2023-11-18T16:28:14.231Z,42.00
2023-11-18T16:32:08.032Z,50.60
2023-11-18T16:36:12.717Z,57.00
2023-11-18T16:40:00.543Z,59.60
2023-11-18T16:43:43.916Z,60.70
2023-11-18T16:47:47.824Z,61.50
2023-11-18T16:51:43.194Z,49.70
2023-11-18T16:55:22.075Z,51.00
2023-11-18T16:59:05.346Z,50.20
2023-11-18T17:03:07.678Z,57.60
2023-11-18T17:07:02.890Z,49.30
2023-11-18T17:10:35.570Z,61.70
2023-11-18T17:14:39.603Z,62.70
2023-11-18T17:17:55.828Z,102.90
2023-11-18T17:22:01.530Z,113.60
2023-11-18T17:25:58.049Z,124.10
2023-11-18T17:29:45.756Z,111.10
2023-11-18T17:33:40.085Z,101.50
2023-11-18T17:37:36.682Z,105.60
2023-11-18T17:41:40.628Z,129.00
2023-11-18T17:44:47.148Z,164.00
2023-11-18T17:48:16.994Z,172.70
2023-11-18T17:52:02.378Z,187.10
2023-11-18T17:59:13.818Z,170.50
2023-11-18T18:03:18.058Z,164.60
2023-11-18T18:07:11.920Z,178.00
2023-11-18T18:11:14.400Z,177.90
2023-11-18T18:14:48.450Z,181.20
2023-11-18T18:21:52.692Z,185.80
2023-11-18T18:25:56.729Z,183.00
2023-11-18T18:29:50.650Z,190.30
2023-11-18T18:33:53.414Z,188.20
2023-11-18T18:37:28.007Z,176.70
2023-11-18T18:40:58.362Z,176.80
2023-11-18T18:44:44.337Z,179.40
2023-11-18T18:48:33.022Z,172.10
2023-11-18T18:52:27.021Z,175.50
2023-11-18T18:56:30.948Z,166.40
2023-11-18T19:04:07.952Z,163.90
2023-11-18T19:08:01.880Z,173.60
2023-11-18T19:11:30.941Z,179.00
2023-11-18T19:15:19.996Z,174.70
2023-11-18T19:19:06.052Z,178.70
2023-11-18T19:22:49.198Z,171.60
2023-11-18T19:26:27.939Z,169.40
2023-11-18T19:29:45.592Z,166.40
2023-11-18T19:33:35.030Z,161.60
2023-11-18T19:37:16.767Z,142.30
2023-11-18T19:41:13.683Z,148.10
2023-11-18T19:44:59.119Z,138.30
2023-11-18T19:48:51.930Z,138.50
2023-11-18T19:52:55.782Z,130.40
2023-11-18T19:56:52.591Z,141.50
2023-11-18T20:00:56.676Z,138.40
2023-11-18T20:05:00.732Z,134.00
2023-11-18T20:08:09.773Z,133.70
2023-11-18T20:12:04.964Z,133.20
2023-11-18T20:16:09.670Z,126.30
2023-11-18T20:20:09.679Z,121.10
2023-11-18T20:24:06.191Z,113.30
2023-11-18T20:27:59.995Z,112.80
2023-11-18T20:32:04.160Z,117.80
2023-11-18T20:36:00.773Z,107.10
2023-11-18T20:39:38.861Z,109.10
2023-11-18T20:43:43.038Z,104.90
2023-11-18T20:47:48.343Z,102.20
2023-11-18T20:51:42.174Z,100.70
2023-11-18T20:55:36.193Z,107.70
2023-11-18T20:59:07.345Z,102.40
2023-11-18T21:03:04.450Z,105.80
2023-11-18T21:06:58.264Z,105.60
2023-11-18T21:11:01.000Z,105.00
2023-11-18T21:15:04.877Z,108.10
2023-11-18T21:18:58.673Z,103.90
2023-11-18T21:22:55.704Z,106.40
2023-11-18T21:26:48.103Z,98.00
2023-11-18T21:30:52.203Z,104.30
2023-11-18T21:34:42.243Z,105.30
2023-11-18T21:38:16.167Z,91.60
2023-11-18T21:42:14.092Z,89.20
2023-11-18T21:46:19.016Z,87.00
2023-11-18T21:49:54.798Z,92.80
2023-11-18T21:53:45.893Z,94.50
2023-11-18T21:57:13.745Z,98.40
2023-11-18T22:00:48.468Z,105.30
2023-11-18T22:04:35.228Z,112.10
2023-11-18T22:08:11.442Z,99.90
2023-11-18T22:12:00.163Z,96.30
2023-11-18T22:15:43.879Z,96.30
2023-11-18T22:19:28.877Z,97.00
2023-11-18T22:23:32.743Z,95.60
2023-11-18T22:27:04.509Z,107.20
2023-11-18T22:30:59.609Z,101.20
2023-11-18T22:34:42.563Z,99.60
2023-11-18T22:38:14.924Z,97.90
2023-11-18T22:42:04.285Z,97.90
2023-11-18T22:45:55.836Z,103.40
2023-11-18T22:49:51.136Z,92.20
2023-11-18T22:53:38.012Z,90.90
2023-11-18T22:57:35.882Z,85.10
2023-11-18T23:01:23.934Z,89.60
2023-11-18T23:05:15.378Z,82.50
2023-11-18T23:08:59.910Z,96.80
2023-11-18T23:13:03.902Z,88.40
2023-11-18T23:20:42.137Z,93.90
2023-11-18T23:24:37.007Z,92.10
2023-11-18T23:28:09.696Z,96.70
2023-11-18T23:31:49.698Z,97.50
2023-11-18T23:35:38.288Z,96.90
2023-11-18T23:39:31.934Z,90.30
2023-11-18T23:43:36.902Z,96.80
2023-11-18T23:47:34.905Z,90.20
2023-11-18T23:51:18.737Z,98.40
2023-11-18T23:55:14.937Z,112.20
2023-11-18T23:58:48.316Z,107.60
